首页
METAR-TAF:

METAR-TAF

机场 :

Leesburg, 佛罗里达州, 美国

纬度: 28-49-21N, 经度: 081-48-32W, 海拔: 24米

当前天气观测

该预报发布于30分钟前的02:53 UTC
风速5节,风向
温度 23°C
湿度 94%
气压 1016 hPa
能見度: 16.1公里
天空无云

METAR: KLEE 050253Z AUTO 18005KT 10SM CLR 23/22 A3001 RMK AO2 SLP159 T02330217 53004

时间: 23:23 (03:23 UTC)

预报

该预报发布于4小时和3分钟前的23:20 UTC
预报有效从05日的 00点(UTC)到 05日的 24点(UTC)
风速6节,风向南转南东
能見度: 10公里
少量云层高于1500英尺
散云层高于2500英尺
多云层高于6000英尺
从 05日的 0300点(UTC)
风速3节,风向多变
能見度: 10公里
少量云层高于2000英尺
散云层高于5000英尺
多云层高于10000英尺
从 05日的 0600点(UTC)
风速3节,风向
能見度: 10公里
散云层高于1200英尺
多云层高于3500英尺
附近有阵雨
短暂存在
从 05日的 07点(UTC)到 05日的 11点(UTC)
多云层高于1000英尺
多云层高于3000英尺
小阵雨
从 05日的 1400点(UTC)
风速5节,风向
能見度: 10公里
散云层高于2500英尺
多云层高于5000英尺
阴天层高于10000英尺
附近有阵雨
短暂存在
从 05日的 16点(UTC)到 05日的 20点(UTC)
能見度: 6.4公里
多云层高于2000英尺
多云层高于5000英尺
阵雨

TAF: KLEE 042320Z 0500/0524 16006KT P6SM FEW015 SCT025 BKN060 FM050300 VRB03KT P6SM FEW020 SCT050 BKN100 FM050600 18003KT P6SM VCSH SCT012 BKN035 TEMPO 0507/0511 -SHRA BKN010 BKN030 FM051400 19005KT P6SM VCSH SCT025 BKN050 OVC100 TEMPO 0516/0520 4SM SHRA BKN020 BKN050

超过4000个机场的气象观测和天气预报(METAR&TAF报告)。

可查询的气象台以黄色和红色小点在地图上表示。

将鼠标移到小点上方,可查看气象台名称。

然后点击查看天气观测和预报。

如需切换地图:点击带黑十字的绿色按钮放大地图;点击带横线的绿色按钮缩小地图;或者点击绿色箭头查看邻近地区的地图。


METAR-TAF: